Time;durP1;ratioP1;P1;durP2;ratioP2;P2;SDS_P1;SDS_P2;PMS_P1;PMS_P2;Temp;Humidity;BMP_temperature;BMP_pressure;BME280_temperature;BME280_humidity;BME280_pressure;Samples;Min_cycle;Max_cycle;Signal;HPM_P1;HPM_P2
2021/07/24 00:02:07;;;;;;;37.55;19.63;;;;;;;;;;6311204;22;20110;-83
2021/07/24 00:04:34;;;;;;;34.50;18.63;;;;;;;;;;6310953;22;20525;-83
2021/07/24 00:07:04;;;;;;;38.20;19.05;;;;;;;;;;6313139;22;20027;-84
2021/07/24 00:09:31;;;;;;;32.78;19.20;;;;;;;;;;6311928;22;20301;-83
2021/07/24 00:11:58;;;;;;;35.45;19.13;;;;;;;;;;6315140;22;20074;-84
2021/07/24 00:14:30;;;;;;;36.47;19.27;;;;;;;;;;6312936;22;20031;-84
2021/07/24 00:16:58;;;;;;;34.60;19.02;;;;;;;;;;6313437;22;20020;-83
2021/07/24 00:19:31;;;;;;;38.92;19.73;;;;;;;;;;6311826;22;20072;-84
2021/07/24 00:21:57;;;;;;;31.55;18.20;;;;;;;;;;6311209;22;20030;-84
2021/07/24 00:24:24;;;;;;;40.67;19.65;;;;;;;;;;6313447;22;20273;-84
2021/07/24 00:26:51;;;;;;;34.20;18.83;;;;;;;;;;6315491;22;20074;-83
2021/07/24 00:29:18;;;;;;;34.72;17.98;;;;;;;;;;6318175;22;20043;-83
2021/07/24 00:31:45;;;;;;;39.88;20.25;;;;;;;;;;6319200;22;20092;-83
2021/07/24 00:34:17;;;;;;;35.55;19.25;;;;;;;;;;6345446;22;20018;-83
2021/07/24 00:36:44;;;;;;;36.58;19.63;;;;;;;;;;6345086;22;20031;-84
2021/07/24 00:39:12;;;;;;;40.92;21.45;;;;;;;;;;6317891;22;20015;-84
2021/07/24 00:41:42;;;;;;;38.55;20.52;;;;;;;;;;6317832;22;20018;-84
2021/07/24 00:44:08;;;;;;;33.75;19.13;;;;;;;;;;6317509;22;20111;-84
2021/07/24 00:46:36;;;;;;;38.92;20.10;;;;;;;;;;6344502;22;20023;-84
2021/07/24 00:49:11;;;;;;;41.33;19.33;;;;;;;;;;6317753;22;20102;-84
2021/07/24 00:51:38;;;;;;;37.50;20.63;;;;;;;;;;6318303;22;20023;-84
2021/07/24 00:54:05;;;;;;;43.25;21.13;;;;;;;;;;6345126;22;20195;-83
2021/07/24 00:56:32;;;;;;;41.72;20.58;;;;;;;;;;6319199;22;20022;-84
2021/07/24 00:58:59;;;;;;;43.50;22.40;;;;;;;;;;6346472;22;20054;-84
2021/07/24 01:01:25;;;;;;;39.25;19.88;;;;;;;;;;6317443;22;20023;-84
2021/07/24 01:03:53;;;;;;;42.15;21.48;;;;;;;;;;6344337;22;20047;-84
2021/07/24 01:06:20;;;;;;;42.22;21.45;;;;;;;;;;6319096;22;20023;-84
2021/07/24 01:08:47;;;;;;;46.45;23.20;;;;;;;;;;6319478;22;20030;-84
2021/07/24 01:11:15;;;;;;;41.00;21.05;;;;;;;;;;6347393;22;20023;-84
2021/07/24 01:13:42;;;;;;;45.75;21.38;;;;;;;;;;6346728;22;20019;-84
2021/07/24 01:16:09;;;;;;;45.35;21.92;;;;;;;;;;6320166;22;20027;-84
2021/07/24 01:18:36;;;;;;;44.08;22.60;;;;;;;;;;6318724;22;20046;-84
2021/07/24 01:21:07;;;;;;;49.08;22.33;;;;;;;;;;6320260;22;20023;-83
2021/07/24 01:23:34;;;;;;;45.45;21.80;;;;;;;;;;6324801;22;20023;-84
2021/07/24 01:26:01;;;;;;;39.92;21.20;;;;;;;;;;6355488;22;20084;-84
2021/07/24 01:28:30;;;;;;;44.63;22.08;;;;;;;;;;6329205;22;20002;-84
2021/07/24 01:30:58;;;;;;;41.28;21.77;;;;;;;;;;6323414;22;20121;-83
2021/07/24 01:33:24;;;;;;;36.95;19.27;;;;;;;;;;6322067;22;20033;-85
2021/07/24 01:35:52;;;;;;;40.10;20.40;;;;;;;;;;6316341;22;20034;-83
2021/07/24 01:38:21;;;;;;;37.00;19.27;;;;;;;;;;6317259;22;20019;-84
2021/07/24 01:40:48;;;;;;;38.97;21.05;;;;;;;;;;6315756;22;20144;-83
2021/07/24 01:43:17;;;;;;;44.47;21.20;;;;;;;;;;6316383;22;20023;-83
2021/07/24 01:45:47;;;;;;;41.15;20.38;;;;;;;;;;6313131;22;20073;-85
2021/07/24 01:48:17;;;;;;;44.45;21.90;;;;;;;;;;6313245;22;20478;-84
2021/07/24 01:53:30;;;;;;;43.65;20.77;;;;;;;;;;6315380;22;20047;-85
2021/07/24 01:55:59;;;;;;;40.67;20.95;;;;;;;;;;6315221;22;20034;-83
2021/07/24 01:58:29;;;;;;;43.22;21.30;;;;;;;;;;6314693;22;20055;-83
2021/07/24 02:01:06;;;;;;;40.40;20.05;;;;;;;;;;6315974;22;20050;-83
2021/07/24 02:03:46;;;;;;;38.70;19.35;;;;;;;;;;6319015;22;20023;-84
2021/07/24 02:06:14;;;;;;;37.72;18.77;;;;;;;;;;6315593;22;20031;-83
2021/07/24 02:08:41;;;;;;;38.40;20.67;;;;;;;;;;6315242;22;20034;-83
2021/07/24 02:11:08;;;;;;;36.13;19.88;;;;;;;;;;6316061;22;20459;-83
2021/07/24 02:13:35;;;;;;;39.92;19.92;;;;;;;;;;6316153;22;20023;-83
2021/07/24 02:16:06;;;;;;;36.33;18.88;;;;;;;;;;6314160;22;20023;-83
2021/07/24 02:18:33;;;;;;;37.15;18.80;;;;;;;;;;6314840;22;20301;-83
2021/07/24 02:21:04;;;;;;;36.75;19.75;;;;;;;;;;6314638;22;20023;-83
2021/07/24 02:23:31;;;;;;;42.20;19.52;;;;;;;;;;6314552;22;20356;-84
2021/07/24 02:25:58;;;;;;;43.65;19.98;;;;;;;;;;6314328;22;20384;-84
2021/07/24 02:28:24;;;;;;;39.20;19.75;;;;;;;;;;6324436;22;20018;-84
2021/07/24 02:30:52;;;;;;;37.72;19.00;;;;;;;;;;6328872;22;20037;-84
2021/07/24 02:33:20;;;;;;;49.63;22.55;;;;;;;;;;6322794;22;20116;-83
2021/07/24 02:35:49;;;;;;;43.90;21.08;;;;;;;;;;6328949;22;20027;-83
2021/07/24 02:38:16;;;;;;;40.65;20.33;;;;;;;;;;6330230;22;20066;-84
2021/07/24 02:40:44;;;;;;;52.30;22.77;;;;;;;;;;6328637;22;20007;-84
2021/07/24 02:43:21;;;;;;;47.03;21.55;;;;;;;;;;6330290;22;20011;-84
2021/07/24 02:45:53;;;;;;;46.60;21.67;;;;;;;;;;6328634;22;20053;-83
2021/07/24 02:48:23;;;;;;;48.13;21.83;;;;;;;;;;6327347;22;20090;-84
2021/07/24 02:50:59;;;;;;;59.65;23.75;;;;;;;;;;6318744;22;20042;-84
2021/07/24 02:53:26;;;;;;;51.78;22.98;;;;;;;;;;6316908;22;20076;-84
2021/07/24 02:55:55;;;;;;;52.85;22.67;;;;;;;;;;6316123;22;20042;-84
2021/07/24 02:58:22;;;;;;;48.30;21.25;;;;;;;;;;6319598;22;20358;-84
2021/07/24 03:00:49;;;;;;;52.88;22.80;;;;;;;;;;6315631;22;20061;-84
2021/07/24 03:03:17;;;;;;;53.10;23.88;;;;;;;;;;6318588;22;20053;-84
2021/07/24 03:05:49;;;;;;;52.88;22.35;;;;;;;;;;6315128;22;20027;-83
2021/07/24 03:08:16;;;;;;;60.95;23.65;;;;;;;;;;6313235;22;20023;-83
2021/07/24 03:10:43;;;;;;;59.20;24.10;;;;;;;;;;6314115;22;20023;-83
2021/07/24 03:13:09;;;;;;;57.20;24.02;;;;;;;;;;6314205;22;20023;-83
2021/07/24 03:15:36;;;;;;;59.22;24.20;;;;;;;;;;6316760;22;20024;-84
2021/07/24 03:18:03;;;;;;;50.55;22.42;;;;;;;;;;6315590;22;20150;-84
2021/07/24 03:20:29;;;;;;;55.03;24.40;;;;;;;;;;6312796;22;20267;-84
2021/07/24 03:23:00;;;;;;;55.40;23.45;;;;;;;;;;6312020;22;20034;-84
2021/07/24 03:25:27;;;;;;;52.13;22.92;;;;;;;;;;6312817;22;20102;-84
2021/07/24 03:27:54;;;;;;;47.67;22.90;;;;;;;;;;6307970;22;20116;-84
2021/07/24 03:30:21;;;;;;;51.17;22.58;;;;;;;;;;6310766;22;20027;-84
2021/07/24 03:32:48;;;;;;;47.22;21.80;;;;;;;;;;6308934;22;20082;-84
2021/07/24 03:35:15;;;;;;;49.17;22.35;;;;;;;;;;6311348;22;20410;-84
2021/07/24 03:37:48;;;;;;;44.17;21.38;;;;;;;;;;6311904;22;20023;-84
2021/07/24 03:40:14;;;;;;;49.92;23.05;;;;;;;;;;6312420;22;20059;-84
2021/07/24 03:42:41;;;;;;;50.00;21.83;;;;;;;;;;6314390;22;20046;-84
2021/07/24 03:45:08;;;;;;;46.42;21.83;;;;;;;;;;6315820;22;20027;-84
2021/07/24 03:47:35;;;;;;;45.25;22.08;;;;;;;;;;6317502;22;20016;-84
2021/07/24 03:50:02;;;;;;;41.25;21.48;;;;;;;;;;6316735;22;20066;-84
2021/07/24 03:52:28;;;;;;;44.63;21.05;;;;;;;;;;6317123;22;20102;-83
2021/07/24 03:54:57;;;;;;;42.47;21.38;;;;;;;;;;6326200;22;20027;-83
2021/07/24 03:57:24;;;;;;;45.58;20.95;;;;;;;;;;6329039;22;20065;-84
2021/07/24 03:59:51;;;;;;;45.03;21.30;;;;;;;;;;6322399;22;20024;-84
2021/07/24 04:02:23;;;;;;;45.55;21.67;;;;;;;;;;6319469;22;20062;-84
2021/07/24 04:04:52;;;;;;;43.78;21.10;;;;;;;;;;6319779;22;20026;-84
2021/07/24 04:07:22;;;;;;;42.63;20.90;;;;;;;;;;6318252;22;20066;-84
2021/07/24 04:09:52;;;;;;;45.72;20.63;;;;;;;;;;6318165;22;20037;-84
2021/07/24 04:12:18;;;;;;;45.45;21.20;;;;;;;;;;6318906;22;20102;-84
2021/07/24 04:14:45;;;;;;;40.58;20.70;;;;;;;;;;6319503;22;20019;-84
2021/07/24 04:17:14;;;;;;;41.42;20.48;;;;;;;;;;6319428;22;20055;-84
2021/07/24 04:19:41;;;;;;;43.08;19.98;;;;;;;;;;6316212;22;20051;-84
2021/07/24 04:22:08;;;;;;;40.92;19.58;;;;;;;;;;6316541;22;20034;-83
2021/07/24 04:24:42;;;;;;;38.10;19.60;;;;;;;;;;6318130;22;20027;-86
2021/07/24 04:27:09;;;;;;;40.30;20.00;;;;;;;;;;6318659;22;20065;-86
2021/07/24 04:29:36;;;;;;;41.42;19.85;;;;;;;;;;6325491;22;20027;-85
2021/07/24 04:32:03;;;;;;;37.78;19.35;;;;;;;;;;6325396;22;20456;-85
2021/07/24 04:34:30;;;;;;;37.60;19.80;;;;;;;;;;6325955;22;20031;-86
2021/07/24 04:36:57;;;;;;;36.38;19.38;;;;;;;;;;6327049;22;20109;-85
2021/07/24 04:39:27;;;;;;;41.40;19.85;;;;;;;;;;6353557;22;20023;-86
2021/07/24 04:41:53;;;;;;;36.03;18.35;;;;;;;;;;6323786;22;20286;-86
2021/07/24 04:44:20;;;;;;;33.13;17.83;;;;;;;;;;6324375;22;20029;-85
2021/07/24 04:46:47;;;;;;;30.83;17.20;;;;;;;;;;6326273;22;20030;-86
2021/07/24 04:49:13;;;;;;;27.77;16.17;;;;;;;;;;6355162;22;20022;-85
2021/07/24 04:51:41;;;;;;;32.22;16.95;;;;;;;;;;6323726;22;20037;-83
2021/07/24 04:54:08;;;;;;;28.38;16.75;;;;;;;;;;6320217;22;20159;-84
2021/07/24 04:56:36;;;;;;;26.25;15.15;;;;;;;;;;6347746;22;20019;-84
2021/07/24 04:59:04;;;;;;;23.15;14.18;;;;;;;;;;6317802;22;20304;-83
2021/07/24 05:01:31;;;;;;;25.65;14.13;;;;;;;;;;6316569;22;20047;-83
2021/07/24 05:03:58;;;;;;;25.42;13.77;;;;;;;;;;6345968;22;20027;-83
2021/07/24 05:06:25;;;;;;;21.52;13.80;;;;;;;;;;6345446;22;20050;-83
2021/07/24 05:08:54;;;;;;;22.10;13.73;;;;;;;;;;6318180;22;20026;-83
2021/07/24 05:11:21;;;;;;;23.20;13.55;;;;;;;;;;6346031;22;20033;-84
2021/07/24 05:13:47;;;;;;;20.70;13.57;;;;;;;;;;6318528;22;20030;-83
2021/07/24 05:16:18;;;;;;;19.30;12.88;;;;;;;;;;6321553;22;20052;-84
2021/07/24 05:18:45;;;;;;;23.13;13.30;;;;;;;;;;6329635;22;20071;-84
2021/07/24 05:21:15;;;;;;;19.00;12.77;;;;;;;;;;6332948;22;20038;-84
2021/07/24 05:23:42;;;;;;;19.65;11.75;;;;;;;;;;6331768;22;20070;-83
2021/07/24 05:26:12;;;;;;;16.85;12.15;;;;;;;;;;6334234;22;20010;-84
2021/07/24 05:28:39;;;;;;;15.10;10.60;;;;;;;;;;6331004;22;20213;-83
2021/07/24 05:31:13;;;;;;;19.83;11.48;;;;;;;;;;6327470;22;20015;-83
2021/07/24 05:33:41;;;;;;;17.53;11.47;;;;;;;;;;6327136;22;20054;-83
2021/07/24 05:36:07;;;;;;;16.20;10.77;;;;;;;;;;6312397;22;20573;-84
2021/07/24 05:38:34;;;;;;;19.08;11.10;;;;;;;;;;6312786;22;20110;-83
2021/07/24 05:41:01;;;;;;;20.20;11.40;;;;;;;;;;6325465;22;20277;-84
2021/07/24 05:43:32;;;;;;;19.38;11.07;;;;;;;;;;6327475;22;20011;-84
2021/07/24 05:45:59;;;;;;;16.27;10.48;;;;;;;;;;6323758;22;20027;-84
2021/07/24 05:48:26;;;;;;;15.00;11.23;;;;;;;;;;6326161;22;20412;-84
2021/07/24 05:50:54;;;;;;;18.67;11.30;;;;;;;;;;6324617;22;20023;-84
2021/07/24 05:53:24;;;;;;;16.85;10.75;;;;;;;;;;6321294;22;20171;-84
2021/07/24 05:55:51;;;;;;;16.08;10.38;;;;;;;;;;6317885;22;20024;-84
2021/07/24 05:58:20;;;;;;;18.40;10.63;;;;;;;;;;6321275;22;20027;-84
2021/07/24 06:00:52;;;;;;;14.80;9.23;;;;;;;;;;6325136;22;20010;-84
2021/07/24 06:03:22;;;;;;;16.48;9.65;;;;;;;;;;6321455;22;20050;-84
2021/07/24 06:05:49;;;;;;;16.10;9.80;;;;;;;;;;6307941;22;20028;-84
2021/07/24 06:08:16;;;;;;;13.80;9.13;;;;;;;;;;6309365;22;20035;-84
2021/07/24 06:10:44;;;;;;;17.35;9.55;;;;;;;;;;6309533;22;20023;-84
2021/07/24 06:13:12;;;;;;;14.68;9.45;;;;;;;;;;6307421;22;20092;-85
2021/07/24 06:15:42;;;;;;;18.40;9.10;;;;;;;;;;6307974;22;20019;-84
2021/07/24 06:18:09;;;;;;;13.50;8.65;;;;;;;;;;6306121;22;20059;-83
2021/07/24 06:20:36;;;;;;;16.20;9.40;;;;;;;;;;6307861;22;20172;-84
2021/07/24 06:23:04;;;;;;;17.15;8.70;;;;;;;;;;6306459;22;20297;-84
2021/07/24 06:25:30;;;;;;;14.77;8.55;;;;;;;;;;6306096;22;20076;-84
2021/07/24 06:27:58;;;;;;;16.48;8.10;;;;;;;;;;6306586;22;20027;-84
2021/07/24 06:30:26;;;;;;;15.32;8.93;;;;;;;;;;6308616;22;20023;-84
2021/07/24 06:32:53;;;;;;;18.48;8.82;;;;;;;;;;6306237;22;20115;-84
2021/07/24 06:35:20;;;;;;;16.65;8.27;;;;;;;;;;6307485;22;20026;-85
2021/07/24 06:37:47;;;;;;;14.07;8.50;;;;;;;;;;6309732;22;20023;-85
2021/07/24 06:40:14;;;;;;;14.10;8.68;;;;;;;;;;6308949;22;20065;-84
2021/07/24 06:42:41;;;;;;;13.57;8.27;;;;;;;;;;6307746;22;20321;-84
2021/07/24 06:45:08;;;;;;;14.10;8.18;;;;;;;;;;6308439;22;20317;-84
2021/07/24 06:47:35;;;;;;;17.33;8.60;;;;;;;;;;6306877;22;20031;-84
2021/07/24 06:50:02;;;;;;;14.40;8.38;;;;;;;;;;6309485;22;20027;-84
2021/07/24 06:52:32;;;;;;;15.20;9.30;;;;;;;;;;6307830;22;20027;-84
2021/07/24 06:54:58;;;;;;;18.05;8.23;;;;;;;;;;6308974;22;20027;-84
2021/07/24 06:57:27;;;;;;;15.10;8.95;;;;;;;;;;6309226;22;20042;-85
2021/07/24 06:59:56;;;;;;;18.02;8.73;;;;;;;;;;6307441;22;20135;-85
2021/07/24 07:02:24;;;;;;;15.65;9.65;;;;;;;;;;6304918;22;20023;-84
2021/07/24 07:04:58;;;;;;;13.02;8.25;;;;;;;;;;6303489;22;20023;-85
2021/07/24 07:07:27;;;;;;;13.98;8.77;;;;;;;;;;6305553;22;20324;-85
2021/07/24 07:09:54;;;;;;;16.83;7.85;;;;;;;;;;6306542;22;20050;-85
2021/07/24 07:12:24;;;;;;;12.38;7.60;;;;;;;;;;6305276;22;20023;-85
2021/07/24 07:14:54;;;;;;;19.92;8.40;;;;;;;;;;6310150;22;20074;-84
2021/07/24 07:17:21;;;;;;;15.77;8.35;;;;;;;;;;6316630;22;20020;-85
2021/07/24 07:19:57;;;;;;;16.60;7.57;;;;;;;;;;6317700;22;20043;-84
2021/07/24 07:22:23;;;;;;;10.90;7.00;;;;;;;;;;6319289;22;20076;-84
2021/07/24 07:24:50;;;;;;;13.52;7.82;;;;;;;;;;6317996;22;20023;-85
2021/07/24 07:27:20;;;;;;;14.23;8.45;;;;;;;;;;6317309;22;20168;-84
2021/07/24 07:29:48;;;;;;;14.23;7.60;;;;;;;;;;6318986;22;20324;-84
2021/07/24 07:32:14;;;;;;;12.18;8.15;;;;;;;;;;6338280;22;20096;-84
2021/07/24 07:34:41;;;;;;;11.82;7.72;;;;;;;;;;6310943;22;20060;-84
2021/07/24 07:37:10;;;;;;;11.75;6.53;;;;;;;;;;6313203;22;20078;-85
2021/07/24 07:39:39;;;;;;;14.60;8.15;;;;;;;;;;6338830;22;20377;-85
2021/07/24 07:42:08;;;;;;;14.80;7.70;;;;;;;;;;6314698;22;20075;-84
2021/07/24 07:44:36;;;;;;;12.00;6.53;;;;;;;;;;6342216;22;20092;-85
2021/07/24 07:47:02;;;;;;;11.02;6.13;;;;;;;;;;6323827;22;20123;-83
2021/07/24 07:49:30;;;;;;;9.93;6.80;;;;;;;;;;6350235;22;20038;-83
2021/07/24 07:51:56;;;;;;;10.90;6.72;;;;;;;;;;6324754;22;20076;-83
2021/07/24 07:54:23;;;;;;;12.07;6.28;;;;;;;;;;6346754;22;20436;-85
2021/07/24 07:56:53;;;;;;;13.93;6.55;;;;;;;;;;6309359;22;20297;-85
2021/07/24 07:59:20;;;;;;;12.40;6.65;;;;;;;;;;6314668;22;20023;-85
2021/07/24 08:01:47;;;;;;;10.27;6.53;;;;;;;;;;6335972;22;20034;-85
2021/07/24 08:04:14;;;;;;;13.60;6.32;;;;;;;;;;6336237;22;20114;-85
2021/07/24 08:06:41;;;;;;;14.07;6.80;;;;;;;;;;6338550;22;20377;-85
2021/07/24 08:09:08;;;;;;;11.27;5.88;;;;;;;;;;6313304;22;20058;-86
2021/07/24 08:11:34;;;;;;;12.88;6.10;;;;;;;;;;6339528;22;20274;-86
2021/07/24 08:14:08;;;;;;;9.93;6.07;;;;;;;;;;6341079;22;20632;-84
2021/07/24 08:16:35;;;;;;;12.55;6.22;;;;;;;;;;6318413;22;20026;-84
2021/07/24 08:19:02;;;;;;;11.15;6.05;;;;;;;;;;6339644;22;20019;-84
2021/07/24 08:21:28;;;;;;;9.80;6.15;;;;;;;;;;6312141;22;20026;-84
2021/07/24 08:23:59;;;;;;;15.18;5.15;;;;;;;;;;6310949;22;20107;-85
2021/07/24 08:26:25;;;;;;;7.40;5.13;;;;;;;;;;6337607;22;20027;-84
2021/07/24 08:28:54;;;;;;;12.35;6.10;;;;;;;;;;6308843;22;20033;-84
2021/07/24 08:31:24;;;;;;;13.45;5.43;;;;;;;;;;6310658;22;20023;-84
2021/07/24 08:33:52;;;;;;;14.65;4.97;;;;;;;;;;6356544;22;20019;-84
2021/07/24 08:36:19;;;;;;;10.35;6.15;;;;;;;;;;6327456;22;20030;-85
2021/07/24 08:38:46;;;;;;;11.55;5.38;;;;;;;;;;6341704;22;20023;-86
2021/07/24 08:41:18;;;;;;;8.27;4.95;;;;;;;;;;6314381;22;20082;-85
2021/07/24 08:43:45;;;;;;;8.48;5.15;;;;;;;;;;6322056;22;20036;-85
2021/07/24 08:46:13;;;;;;;11.73;4.90;;;;;;;;;;6323631;22;20071;-84
2021/07/24 08:48:40;;;;;;;9.75;4.65;;;;;;;;;;6310355;22;20023;-85
2021/07/24 08:51:08;;;;;;;8.45;5.28;;;;;;;;;;6345454;22;20108;-84
2021/07/24 08:53:36;;;;;;;9.23;5.65;;;;;;;;;;6315476;22;20046;-84
2021/07/24 08:56:15;;;;;;;12.30;4.80;;;;;;;;;;6347484;22;20043;-84
2021/07/24 08:58:46;;;;;;;8.25;4.15;;;;;;;;;;6318041;22;20179;-84
2021/07/24 09:01:19;;;;;;;6.68;3.95;;;;;;;;;;6318567;22;20340;-83
2021/07/24 09:03:49;;;;;;;9.25;4.53;;;;;;;;;;6317170;22;20026;-83
2021/07/24 09:06:18;;;;;;;9.82;4.85;;;;;;;;;;6345383;22;20208;-83
2021/07/24 09:08:50;;;;;;;7.40;4.57;;;;;;;;;;6315650;22;20127;-84
2021/07/24 09:11:18;;;;;;;6.97;4.07;;;;;;;;;;6317600;22;20029;-83
2021/07/24 09:13:45;;;;;;;10.65;4.22;;;;;;;;;;6319859;22;20251;-83
2021/07/24 09:16:15;;;;;;;7.70;4.18;;;;;;;;;;6327196;22;20014;-83
2021/07/24 09:18:44;;;;;;;7.60;4.05;;;;;;;;;;6326680;22;20022;-84
2021/07/24 09:21:13;;;;;;;10.48;4.50;;;;;;;;;;6315339;22;20033;-84
2021/07/24 09:23:47;;;;;;;8.90;4.78;;;;;;;;;;6340895;22;20023;-84
2021/07/24 09:26:34;;;;;;;9.00;4.20;;;;;;;;;;6316855;22;20092;-84
2021/07/24 09:29:14;;;;;;;8.07;4.10;;;;;;;;;;6325555;22;20021;-84
2021/07/24 09:31:42;;;;;;;5.68;3.78;;;;;;;;;;6357062;22;20030;-83
2021/07/24 09:34:09;;;;;;;6.60;4.03;;;;;;;;;;6327986;22;20026;-84
2021/07/24 09:36:37;;;;;;;7.10;4.40;;;;;;;;;;6330356;22;20019;-83
2021/07/24 09:39:08;;;;;;;10.50;4.07;;;;;;;;;;6330531;22;20027;-83
2021/07/24 09:41:35;;;;;;;7.15;4.78;;;;;;;;;;6324792;22;20023;-83
2021/07/24 09:44:23;;;;;;;8.98;4.35;;;;;;;;;;6350948;22;20534;-83
2021/07/24 09:46:54;;;;;;;8.70;4.40;;;;;;;;;;6321336;22;20076;-84
2021/07/24 09:49:33;;;;;;;9.98;4.30;;;;;;;;;;6326356;22;20022;-84
2021/07/24 09:52:34;;;;;;;8.30;4.93;;;;;;;;;;6347380;22;20072;-83
2021/07/24 09:55:18;;;;;;;8.13;4.82;;;;;;;;;;6320119;22;20070;-83
2021/07/24 09:57:49;;;;;;;9.98;4.78;;;;;;;;;;6348193;22;20043;-83
2021/07/24 10:00:28;;;;;;;17.38;4.50;;;;;;;;;;6319185;22;20019;-84
2021/07/24 10:02:57;;;;;;;9.07;4.40;;;;;;;;;;6315688;22;20023;-84
2021/07/24 10:05:40;;;;;;;7.93;4.82;;;;;;;;;;6315488;22;20046;-85
2021/07/24 10:08:10;;;;;;;12.05;5.07;;;;;;;;;;6314093;22;20094;-84
2021/07/24 10:10:38;;;;;;;8.77;4.93;;;;;;;;;;6314894;22;20083;-83
2021/07/24 10:13:14;;;;;;;10.25;4.18;;;;;;;;;;6314421;22;20215;-83
2021/07/24 10:15:47;;;;;;;5.97;3.95;;;;;;;;;;6313161;22;20065;-84
2021/07/24 10:18:17;;;;;;;7.45;4.47;;;;;;;;;;6313221;22;20044;-83
2021/07/24 10:20:48;;;;;;;6.53;4.45;;;;;;;;;;6339158;22;20101;-83
2021/07/24 10:23:17;;;;;;;8.80;4.60;;;;;;;;;;6338934;22;20469;-84
2021/07/24 10:26:04;;;;;;;8.32;4.15;;;;;;;;;;6314144;22;20023;-83
2021/07/24 10:28:36;;;;;;;8.47;4.93;;;;;;;;;;6338012;22;20015;-83
2021/07/24 10:31:15;;;;;;;9.98;4.47;;;;;;;;;;6337716;22;20101;-84
2021/07/24 10:33:47;;;;;;;9.65;5.00;;;;;;;;;;6340358;22;20018;-85
2021/07/24 10:36:39;;;;;;;15.30;5.15;;;;;;;;;;6341422;22;20058;-83
2021/07/24 10:39:18;;;;;;;7.57;4.43;;;;;;;;;;6313328;22;20084;-83
2021/07/24 10:41:49;;;;;;;7.38;4.32;;;;;;;;;;6313559;22;20269;-84
2021/07/24 10:44:46;;;;;;;5.93;3.63;;;;;;;;;;6340351;22;20075;-84
2021/07/24 10:47:15;;;;;;;9.75;4.90;;;;;;;;;;6281185;22;20029;-84
2021/07/24 10:49:45;;;;;;;6.63;4.00;;;;;;;;;;6341652;22;20038;-83
2021/07/24 10:52:12;;;;;;;6.72;4.05;;;;;;;;;;6312155;22;20070;-84
2021/07/24 10:55:06;;;;;;;6.47;4.32;;;;;;;;;;6339703;22;20029;-84
2021/07/24 10:57:46;;;;;;;8.50;5.15;;;;;;;;;;6338656;22;20538;-83
2021/07/24 11:00:18;;;;;;;9.98;4.28;;;;;;;;;;6310811;22;20146;-84
2021/07/24 11:02:49;;;;;;;11.57;4.75;;;;;;;;;;6308000;22;20029;-84
2021/07/24 11:05:29;;;;;;;7.90;4.88;;;;;;;;;;6311251;22;20027;-83
2021/07/24 11:07:58;;;;;;;8.20;4.50;;;;;;;;;;6315569;22;20022;-84
2021/07/24 11:10:35;;;;;;;13.60;5.60;;;;;;;;;;6341229;22;20031;-83
2021/07/24 11:13:02;;;;;;;8.45;4.88;;;;;;;;;;6313494;22;20177;-84
2021/07/24 11:15:38;;;;;;;10.13;4.85;;;;;;;;;;6311748;22;20049;-84
2021/07/24 11:18:25;;;;;;;9.30;5.35;;;;;;;;;;6309461;22;20182;-84
2021/07/24 11:20:55;;;;;;;12.43;5.20;;;;;;;;;;6309102;22;20243;-84
2021/07/24 11:23:23;;;;;;;5.68;4.60;;;;;;;;;;6307845;22;20023;-85
2021/07/24 11:25:51;;;;;;;9.20;5.10;;;;;;;;;;6307081;22;20046;-84
2021/07/24 11:28:23;;;;;;;12.70;5.18;;;;;;;;;;6310837;22;20414;-84
2021/07/24 11:30:55;;;;;;;9.50;5.35;;;;;;;;;;6312865;22;20030;-84
2021/07/24 11:33:25;;;;;;;9.02;4.43;;;;;;;;;;6326962;22;20162;-84
2021/07/24 11:35:57;;;;;;;9.48;5.43;;;;;;;;;;6353902;22;20027;-84
2021/07/24 11:38:24;;;;;;;8.30;5.13;;;;;;;;;;6341251;22;20121;-84
2021/07/24 11:40:58;;;;;;;12.93;4.80;;;;;;;;;;6339869;22;20022;-84
2021/07/24 11:43:25;;;;;;;7.35;4.68;;;;;;;;;;6326566;22;20015;-84
2021/07/24 11:46:00;;;;;;;10.50;5.95;;;;;;;;;;6349478;22;20438;-84
2021/07/24 11:48:30;;;;;;;12.35;4.82;;;;;;;;;;6316852;22;20061;-84
2021/07/24 11:51:01;;;;;;;8.40;4.97;;;;;;;;;;6343364;22;20171;-84
2021/07/24 11:53:28;;;;;;;12.30;5.70;;;;;;;;;;6315721;22;20026;-84
2021/07/24 11:55:55;;;;;;;7.97;5.28;;;;;;;;;;6342259;22;20053;-84
2021/07/24 11:58:27;;;;;;;10.35;6.60;;;;;;;;;;6344080;22;20026;-84
2021/07/24 12:00:55;;;;;;;10.35;5.75;;;;;;;;;;6342031;22;20034;-84
2021/07/24 12:03:23;;;;;;;16.15;5.50;;;;;;;;;;6314722;22;20065;-85
2021/07/24 12:06:12;;;;;;;8.77;5.40;;;;;;;;;;6316201;22;20057;-85
2021/07/24 12:08:40;;;;;;;7.60;4.88;;;;;;;;;;6319194;22;20033;-85
2021/07/24 12:11:14;;;;;;;11.32;6.20;;;;;;;;;;6346811;22;20023;-83
2021/07/24 12:13:45;;;;;;;8.80;6.30;;;;;;;;;;6322303;22;20030;-85
2021/07/24 12:16:17;;;;;;;16.45;7.15;;;;;;;;;;6323712;22;20019;-83
2021/07/24 12:18:45;;;;;;;11.48;5.60;;;;;;;;;;6349479;22;20554;-84
2021/07/24 12:21:16;;;;;;;12.60;5.93;;;;;;;;;;6320434;22;20072;-83
2021/07/24 12:23:52;;;;;;;9.25;6.10;;;;;;;;;;6347159;22;20019;-83
2021/07/24 12:26:32;;;;;;;7.60;5.22;;;;;;;;;;6346680;22;20396;-84
2021/07/24 12:29:11;;;;;;;8.93;6.03;;;;;;;;;;6317098;22;20026;-84
2021/07/24 12:31:48;;;;;;;11.27;6.72;;;;;;;;;;6312030;22;20038;-84
2021/07/24 12:34:16;;;;;;;8.57;6.45;;;;;;;;;;6313659;22;20024;-84
2021/07/24 12:36:57;;;;;;;12.98;7.45;;;;;;;;;;6323675;22;20073;-84
2021/07/24 12:39:24;;;;;;;10.05;6.53;;;;;;;;;;6324234;22;20126;-84
2021/07/24 12:41:59;;;;;;;11.05;6.88;;;;;;;;;;6315898;22;20015;-84
2021/07/24 12:44:26;;;;;;;13.52;6.53;;;;;;;;;;6323720;22;20027;-84
2021/07/24 12:47:12;;;;;;;12.35;7.07;;;;;;;;;;6326006;22;20011;-84
2021/07/24 12:49:43;;;;;;;10.45;6.88;;;;;;;;;;6323344;22;20034;-84
2021/07/24 12:52:30;;;;;;;9.25;6.90;;;;;;;;;;6321862;22;20076;-83
2021/07/24 12:55:07;;;;;;;10.48;6.85;;;;;;;;;;6318217;22;20058;-84
2021/07/24 12:57:44;;;;;;;14.23;7.43;;;;;;;;;;6313783;22;20435;-84
2021/07/24 13:00:13;;;;;;;8.95;6.28;;;;;;;;;;6313755;22;20031;-84
2021/07/24 13:02:47;;;;;;;10.07;6.40;;;;;;;;;;6314387;22;20103;-85
2021/07/24 13:05:17;;;;;;;11.50;6.88;;;;;;;;;;6314552;22;20289;-85
2021/07/24 13:07:44;;;;;;;8.80;7.03;;;;;;;;;;6318759;22;20046;-84
2021/07/24 13:10:13;;;;;;;8.80;6.53;;;;;;;;;;6324449;22;20041;-84
2021/07/24 13:12:46;;;;;;;12.10;7.05;;;;;;;;;;6324684;22;20019;-86
2021/07/24 13:15:16;;;;;;;14.23;7.68;;;;;;;;;;6321393;22;20047;-84
2021/07/24 13:17:43;;;;;;;14.05;7.68;;;;;;;;;;6316643;22;20019;-84
2021/07/24 13:20:19;;;;;;;13.68;7.65;;;;;;;;;;6314729;22;20058;-87
2021/07/24 13:22:45;;;;;;;9.75;7.28;;;;;;;;;;6311126;22;20023;-85
2021/07/24 13:30:27;;;;;;;12.82;7.90;;;;;;;;;;6326631;22;20027;-84
2021/07/24 13:32:57;;;;;;;13.45;8.20;;;;;;;;;;6343545;22;20034;-85
2021/07/24 13:35:24;;;;;;;15.73;8.23;;;;;;;;;;6314709;22;20358;-84
2021/07/24 13:37:51;;;;;;;11.40;7.50;;;;;;;;;;6341415;22;20069;-85
2021/07/24 13:40:17;;;;;;;14.90;8.70;;;;;;;;;;6312163;22;20031;-84
2021/07/24 13:42:45;;;;;;;13.10;8.68;;;;;;;;;;6312842;22;20027;-84
2021/07/24 13:45:11;;;;;;;11.85;8.57;;;;;;;;;;6321413;22;20065;-84
2021/07/24 13:47:38;;;;;;;18.40;8.85;;;;;;;;;;6350516;22;20042;-83
2021/07/24 13:50:14;;;;;;;14.27;8.40;;;;;;;;;;6349966;22;20210;-85
2021/07/24 13:52:41;;;;;;;20.52;8.52;;;;;;;;;;6353050;22;20302;-85
2021/07/24 13:55:08;;;;;;;10.35;7.45;;;;;;;;;;6317229;22;20026;-85
2021/07/24 13:57:43;;;;;;;10.95;7.57;;;;;;;;;;6313781;22;20019;-86
2021/07/24 14:00:10;;;;;;;14.82;8.05;;;;;;;;;;6315819;22;20045;-86
2021/07/24 14:02:39;;;;;;;18.73;9.20;;;;;;;;;;6314090;22;20046;-86
2021/07/24 14:05:09;;;;;;;10.18;8.15;;;;;;;;;;6316587;22;20050;-86
2021/07/24 14:07:37;;;;;;;10.88;7.80;;;;;;;;;;6338576;22;20374;-85
2021/07/24 14:10:09;;;;;;;14.77;8.63;;;;;;;;;;6313897;22;20268;-86
2021/07/24 14:12:42;;;;;;;13.48;9.02;;;;;;;;;;6315730;22;20019;-86
2021/07/24 14:15:21;;;;;;;17.40;8.75;;;;;;;;;;6317602;22;20144;-85
2021/07/24 14:17:51;;;;;;;15.38;9.68;;;;;;;;;;6315683;22;20481;-86
2021/07/24 14:20:18;;;;;;;20.63;9.90;;;;;;;;;;6315568;22;20033;-85
2021/07/24 14:22:47;;;;;;;15.75;9.07;;;;;;;;;;6315135;22;20023;-86
2021/07/24 14:25:14;;;;;;;15.38;8.45;;;;;;;;;;6358746;22;20025;-85
2021/07/24 14:27:46;;;;;;;15.50;8.85;;;;;;;;;;6351954;22;20269;-86
2021/07/24 14:30:13;;;;;;;16.63;8.77;;;;;;;;;;6309952;22;20435;-85
2021/07/24 14:33:00;;;;;;;18.63;9.30;;;;;;;;;;6314200;22;20034;-85
2021/07/24 14:35:30;;;;;;;17.67;9.57;;;;;;;;;;6327291;22;20015;-85
2021/07/24 14:38:00;;;;;;;18.92;9.82;;;;;;;;;;6326071;22;20019;-85
2021/07/24 14:40:27;;;;;;;18.08;8.93;;;;;;;;;;6327589;22;20015;-85
2021/07/24 14:42:54;;;;;;;12.55;8.82;;;;;;;;;;6326541;22;20023;-86
2021/07/24 14:45:24;;;;;;;12.48;9.10;;;;;;;;;;6326194;22;20027;-85
2021/07/24 14:47:52;;;;;;;12.43;9.38;;;;;;;;;;6316395;22;20033;-85
2021/07/24 14:50:20;;;;;;;13.55;9.00;;;;;;;;;;6317985;22;20088;-86
2021/07/24 14:52:50;;;;;;;15.75;9.23;;;;;;;;;;6313759;22;20027;-85